sensor_id;sensor_type;location;lat;lon;timestamp;pressure;altitude;pressure_sealevel;temperature;humidity
61205;BME280;47068;55.780;37.520;2022-10-16T00:01:08;101151.13;;;7.46;59.60
61205;BME280;47068;55.780;37.520;2022-10-16T00:03:34;101150.28;;;7.46;59.61
61205;BME280;47068;55.780;37.520;2022-10-16T00:06:01;101151.34;;;7.43;60.27
61205;BME280;47068;55.780;37.520;2022-10-16T00:08:27;101158.53;;;7.41;59.95
61205;BME280;47068;55.780;37.520;2022-10-16T00:10:52;101092.72;;;6.99;60.28
61205;BME280;47068;55.780;37.520;2022-10-16T00:13:18;101162.38;;;7.37;60.39
61205;BME280;47068;55.780;37.520;2022-10-16T00:15:45;101163.41;;;7.35;60.42
61205;BME280;47068;55.780;37.520;2022-10-16T00:18:11;101150.72;;;7.27;59.83
61205;BME280;47068;55.780;37.520;2022-10-16T00:20:37;101153.69;;;7.23;60.53
61205;BME280;47068;55.780;37.520;2022-10-16T00:23:03;101134.44;;;7.08;60.76
61205;BME280;47068;55.780;37.520;2022-10-16T00:25:30;101159.94;;;7.22;60.18
61205;BME280;47068;55.780;37.520;2022-10-16T00:27:58;101171.16;;;7.25;60.20
61205;BME280;47068;55.780;37.520;2022-10-16T00:30:24;101155.91;;;7.16;60.86
61205;BME280;47068;55.780;37.520;2022-10-16T00:32:51;101174.22;;;7.19;60.74
61205;BME280;47068;55.780;37.520;2022-10-16T00:35:17;101169.16;;;7.16;60.45
61205;BME280;47068;55.780;37.520;2022-10-16T00:37:42;101145.22;;;6.92;61.09
61205;BME280;47068;55.780;37.520;2022-10-16T00:40:09;101101.84;;;6.69;60.73
61205;BME280;47068;55.780;37.520;2022-10-16T00:42:35;101176.78;;;7.08;60.70
61205;BME280;47068;55.780;37.520;2022-10-16T00:45:00;101178.66;;;7.06;61.13
61205;BME280;47068;55.780;37.520;2022-10-16T00:50:16;101151.25;;;6.94;61.45
61205;BME280;47068;55.780;37.520;2022-10-16T00:52:46;101175.91;;;7.07;60.67
61205;BME280;47068;55.780;37.520;2022-10-16T00:55:12;101132.94;;;6.79;61.30
61205;BME280;47068;55.780;37.520;2022-10-16T00:57:39;101170.44;;;6.98;61.48
61205;BME280;47068;55.780;37.520;2022-10-16T01:00:08;101189.47;;;7.03;61.66
61205;BME280;47068;55.780;37.520;2022-10-16T01:02:34;101158.78;;;6.88;61.52
61205;BME280;47068;55.780;37.520;2022-10-16T01:05:00;101112.94;;;6.62;61.39
61205;BME280;47068;55.780;37.520;2022-10-16T01:07:47;101182.38;;;7.03;60.79
61205;BME280;47068;55.780;37.520;2022-10-16T01:15:47;101192.31;;;7.00;60.96
61205;BME280;47068;55.780;37.520;2022-10-16T01:18:17;101188.31;;;6.94;60.58
61205;BME280;47068;55.780;37.520;2022-10-16T01:20:47;101195.28;;;6.95;61.40
61205;BME280;47068;55.780;37.520;2022-10-16T01:23:20;101191.03;;;6.93;60.73
61205;BME280;47068;55.780;37.520;2022-10-16T01:28:54;101191.19;;;7.04;61.06
61205;BME280;47068;55.780;37.520;2022-10-16T01:31:25;101199.84;;;7.06;60.65
61205;BME280;47068;55.780;37.520;2022-10-16T01:36:42;101189.91;;;6.97;60.89
61205;BME280;47068;55.780;37.520;2022-10-16T01:39:11;101203.47;;;7.05;61.21
61205;BME280;47068;55.780;37.520;2022-10-16T01:41:41;101203.47;;;7.05;60.99
61205;BME280;47068;55.780;37.520;2022-10-16T01:44:11;101201.97;;;7.01;60.49
61205;BME280;47068;55.780;37.520;2022-10-16T01:46:41;101185.03;;;6.91;61.22
61205;BME280;47068;55.780;37.520;2022-10-16T01:49:09;101210.66;;;7.03;60.40
61205;BME280;47068;55.780;37.520;2022-10-16T01:51:35;101171.03;;;6.76;60.69
61205;BME280;47068;55.780;37.520;2022-10-16T01:54:02;101185.53;;;6.83;60.88
61205;BME280;47068;55.780;37.520;2022-10-16T01:56:30;101194.75;;;6.90;61.35
61205;BME280;47068;55.780;37.520;2022-10-16T01:59:10;101204.28;;;6.93;60.80
61205;BME280;47068;55.780;37.520;2022-10-16T02:01:39;101175.25;;;6.79;61.07
61205;BME280;47068;55.780;37.520;2022-10-16T02:04:17;101183.00;;;6.82;61.13
61205;BME280;47068;55.780;37.520;2022-10-16T02:06:44;101178.66;;;6.81;60.92
61205;BME280;47068;55.780;37.520;2022-10-16T02:09:10;101211.16;;;6.95;61.05
61205;BME280;47068;55.780;37.520;2022-10-16T02:11:35;101175.66;;;6.72;61.21
61205;BME280;47068;55.780;37.520;2022-10-16T02:14:04;101206.19;;;6.91;61.22
61205;BME280;47068;55.780;37.520;2022-10-16T02:16:48;101202.56;;;6.92;60.81
61205;BME280;47068;55.780;37.520;2022-10-16T02:19:14;101195.63;;;6.91;61.30
61205;BME280;47068;55.780;37.520;2022-10-16T02:24:19;101203.66;;;6.89;61.08
61205;BME280;47068;55.780;37.520;2022-10-16T02:27:26;101208.09;;;6.89;60.45
61205;BME280;47068;55.780;37.520;2022-10-16T02:29:56;101182.56;;;6.75;60.71
61205;BME280;47068;55.780;37.520;2022-10-16T02:32:27;101210.75;;;6.89;60.74
61205;BME280;47068;55.780;37.520;2022-10-16T02:34:56;101111.91;;;6.25;60.86
61205;BME280;47068;55.780;37.520;2022-10-16T02:37:23;101217.91;;;6.87;60.45
61205;BME280;47068;55.780;37.520;2022-10-16T02:39:49;101223.13;;;6.88;60.92
61205;BME280;47068;55.780;37.520;2022-10-16T02:42:15;101215.28;;;6.87;60.61
61205;BME280;47068;55.780;37.520;2022-10-16T02:44:42;101215.50;;;6.84;61.23
61205;BME280;47068;55.780;37.520;2022-10-16T02:47:08;101219.94;;;6.83;60.87
61205;BME280;47068;55.780;37.520;2022-10-16T02:49:33;101221.72;;;6.83;61.41
61205;BME280;47068;55.780;37.520;2022-10-16T02:51:59;101226.19;;;6.82;61.34
61205;BME280;47068;55.780;37.520;2022-10-16T02:54:24;101217.38;;;6.82;60.67
61205;BME280;47068;55.780;37.520;2022-10-16T02:56:52;101221.94;;;6.80;60.85
61205;BME280;47068;55.780;37.520;2022-10-16T02:59:17;101224.56;;;6.80;60.89
61205;BME280;47068;55.780;37.520;2022-10-16T03:01:45;101219.59;;;6.75;60.53
61205;BME280;47068;55.780;37.520;2022-10-16T03:04:10;101226.38;;;6.79;60.75
61205;BME280;47068;55.780;37.520;2022-10-16T03:06:36;101226.19;;;6.82;60.95
61205;BME280;47068;55.780;37.520;2022-10-16T03:09:01;101229.66;;;6.83;61.18
61205;BME280;47068;55.780;37.520;2022-10-16T03:11:27;101241.97;;;6.84;61.21
61205;BME280;47068;55.780;37.520;2022-10-16T03:13:53;101165.16;;;6.46;60.89
61205;BME280;47068;55.780;37.520;2022-10-16T03:16:18;101185.78;;;6.53;60.56
61205;BME280;47068;55.780;37.520;2022-10-16T03:18:48;101234.75;;;6.86;60.50
61205;BME280;47068;55.780;37.520;2022-10-16T03:21:13;101233.88;;;6.85;60.75
61205;BME280;47068;55.780;37.520;2022-10-16T03:23:39;101245.53;;;6.83;60.31
61205;BME280;47068;55.780;37.520;2022-10-16T03:26:04;101237.69;;;6.81;60.96
61205;BME280;47068;55.780;37.520;2022-10-16T03:28:30;101235.81;;;6.83;60.87
61205;BME280;47068;55.780;37.520;2022-10-16T03:30:55;101193.63;;;6.55;60.11
61205;BME280;47068;55.780;37.520;2022-10-16T03:33:20;101244.88;;;6.79;61.09
61205;BME280;47068;55.780;37.520;2022-10-16T03:35:54;101218.72;;;6.62;60.38
61205;BME280;47068;55.780;37.520;2022-10-16T03:38:20;101195.75;;;6.50;60.39
61205;BME280;47068;55.780;37.520;2022-10-16T03:40:45;101250.06;;;6.81;60.80
61205;BME280;47068;55.780;37.520;2022-10-16T03:43:11;101255.28;;;6.82;60.01
61205;BME280;47068;55.780;37.520;2022-10-16T03:45:36;101252.72;;;6.81;60.38
61205;BME280;47068;55.780;37.520;2022-10-16T03:48:02;101246.50;;;6.82;60.90
61205;BME280;47068;55.780;37.520;2022-10-16T03:50:28;101250.06;;;6.81;60.04
61205;BME280;47068;55.780;37.520;2022-10-16T03:52:54;101245.72;;;6.80;60.37
61205;BME280;47068;55.780;37.520;2022-10-16T03:55:19;101214.69;;;6.56;60.32
61205;BME280;47068;55.780;37.520;2022-10-16T03:57:45;101204.91;;;6.44;60.71
61205;BME280;47068;55.780;37.520;2022-10-16T04:00:11;101222.06;;;6.51;60.86
61205;BME280;47068;55.780;37.520;2022-10-16T04:02:36;101254.41;;;6.69;60.73
61205;BME280;47068;55.780;37.520;2022-10-16T04:05:02;101260.72;;;6.66;60.37
61205;BME280;47068;55.780;37.520;2022-10-16T04:07:28;101253.00;;;6.63;60.59
61205;BME280;47068;55.780;37.520;2022-10-16T04:09:54;101256.88;;;6.58;61.09
61205;BME280;47068;55.780;37.520;2022-10-16T04:12:19;101253.28;;;6.59;61.60
61205;BME280;47068;55.780;37.520;2022-10-16T04:14:44;101248.00;;;6.59;61.48
61205;BME280;47068;55.780;37.520;2022-10-16T04:17:10;101254.13;;;6.59;61.38
61205;BME280;47068;55.780;37.520;2022-10-16T04:19:35;101257.53;;;6.61;61.47
61205;BME280;47068;55.780;37.520;2022-10-16T04:22:02;101230.22;;;6.48;61.47
61205;BME280;47068;55.780;37.520;2022-10-16T04:24:27;101222.50;;;6.31;60.95
61205;BME280;47068;55.780;37.520;2022-10-16T04:26:53;101188.41;;;6.14;61.42
61205;BME280;47068;55.780;37.520;2022-10-16T04:29:18;101202.06;;;6.20;61.43
61205;BME280;47068;55.780;37.520;2022-10-16T04:31:44;101268.53;;;6.55;61.58
61205;BME280;47068;55.780;37.520;2022-10-16T04:34:09;101271.91;;;6.57;61.34
61205;BME280;47068;55.780;37.520;2022-10-16T04:36:35;101267.19;;;6.62;61.08
61205;BME280;47068;55.780;37.520;2022-10-16T04:39:00;101269.59;;;6.65;60.80
61205;BME280;47068;55.780;37.520;2022-10-16T04:41:25;101251.72;;;6.56;61.43
61205;BME280;47068;55.780;37.520;2022-10-16T04:43:51;101256.03;;;6.57;61.40
61205;BME280;47068;55.780;37.520;2022-10-16T04:46:16;101273.94;;;6.66;61.11
61205;BME280;47068;55.780;37.520;2022-10-16T04:48:42;101267.72;;;6.67;60.67
61205;BME280;47068;55.780;37.520;2022-10-16T04:51:07;101267.53;;;6.70;61.02
61205;BME280;47068;55.780;37.520;2022-10-16T04:53:33;101268.81;;;6.78;60.43
61205;BME280;47068;55.780;37.520;2022-10-16T04:55:59;101280.03;;;6.81;59.97
61205;BME280;47068;55.780;37.520;2022-10-16T04:58:24;101277.19;;;6.84;60.09
61205;BME280;47068;55.780;37.520;2022-10-16T05:00:50;101290.03;;;6.90;59.59
61205;BME280;47068;55.780;37.520;2022-10-16T05:03:15;101281.75;;;6.95;59.86
61205;BME280;47068;55.780;37.520;2022-10-16T05:05:45;101276.28;;;6.98;59.57
61205;BME280;47068;55.780;37.520;2022-10-16T05:08:15;101279.22;;;7.06;59.34
61205;BME280;47068;55.780;37.520;2022-10-16T05:10:44;101274.91;;;7.05;59.29
61205;BME280;47068;55.780;37.520;2022-10-16T05:13:10;101279.56;;;7.14;59.17
61205;BME280;47068;55.780;37.520;2022-10-16T05:15:36;101247.25;;;6.96;58.81
61205;BME280;47068;55.780;37.520;2022-10-16T05:18:01;101278.53;;;7.17;59.09
61205;BME280;47068;55.780;37.520;2022-10-16T05:20:27;101278.44;;;7.18;58.83
61205;BME280;47068;55.780;37.520;2022-10-16T05:22:52;101277.34;;;7.21;58.88
61205;BME280;47068;55.780;37.520;2022-10-16T05:25:18;101248.44;;;7.05;58.47
61205;BME280;47068;55.780;37.520;2022-10-16T05:27:47;101283.75;;;7.31;58.54
61205;BME280;47068;55.780;37.520;2022-10-16T05:30:12;101280.56;;;7.38;58.61
61205;BME280;47068;55.780;37.520;2022-10-16T05:32:38;101287.34;;;7.42;57.74
61205;BME280;47068;55.780;37.520;2022-10-16T05:35:03;101244.75;;;7.20;58.09
61205;BME280;47068;55.780;37.520;2022-10-16T05:37:29;101221.75;;;7.21;58.09
61205;BME280;47068;55.780;37.520;2022-10-16T05:39:54;101275.78;;;7.56;57.99
61205;BME280;47068;55.780;37.520;2022-10-16T05:42:20;101293.28;;;7.71;57.67
61205;BME280;47068;55.780;37.520;2022-10-16T05:44:45;101294.31;;;7.81;57.18
61205;BME280;47068;55.780;37.520;2022-10-16T05:47:12;101291.78;;;7.93;57.14
61205;BME280;47068;55.780;37.520;2022-10-16T05:49:38;101288.69;;;7.99;56.63
61205;BME280;47068;55.780;37.520;2022-10-16T05:52:03;101291.25;;;8.00;55.95
61205;BME280;47068;55.780;37.520;2022-10-16T05:54:29;101291.00;;;8.03;56.18
61205;BME280;47068;55.780;37.520;2022-10-16T05:56:54;101290.47;;;8.11;56.25
61205;BME280;47068;55.780;37.520;2022-10-16T05:59:19;101255.09;;;7.99;55.95
61205;BME280;47068;55.780;37.520;2022-10-16T06:01:45;101296.59;;;8.37;55.74
61205;BME280;47068;55.780;37.520;2022-10-16T06:04:10;101260.66;;;8.20;55.25
61205;BME280;47068;55.780;37.520;2022-10-16T06:06:36;101302.78;;;8.61;54.64
61205;BME280;47068;55.780;37.520;2022-10-16T06:09:02;101301.41;;;8.79;53.85
61205;BME280;47068;55.780;37.520;2022-10-16T06:11:30;101258.69;;;8.71;53.59
61205;BME280;47068;55.780;37.520;2022-10-16T06:13:58;101294.91;;;9.53;53.22
61205;BME280;47068;55.780;37.520;2022-10-16T06:16:26;101267.50;;;10.74;50.07
61205;BME280;47068;55.780;37.520;2022-10-16T06:18:53;101289.31;;;12.72;46.35
61205;BME280;47068;55.780;37.520;2022-10-16T06:21:21;101291.22;;;13.66;42.37
61205;BME280;47068;55.780;37.520;2022-10-16T06:23:48;101289.22;;;14.15;41.90
61205;BME280;47068;55.780;37.520;2022-10-16T06:26:16;101289.66;;;14.83;40.72
61205;BME280;47068;55.780;37.520;2022-10-16T06:28:42;101285.09;;;15.80;38.50
61205;BME280;47068;55.780;37.520;2022-10-16T06:31:09;101287.16;;;16.28;37.74
61205;BME280;47068;55.780;37.520;2022-10-16T06:33:35;101280.16;;;15.06;38.57
61205;BME280;47068;55.780;37.520;2022-10-16T06:36:06;101291.28;;;13.94;40.51
61205;BME280;47068;55.780;37.520;2022-10-16T06:38:34;101280.03;;;13.15;42.12
61205;BME280;47068;55.780;37.520;2022-10-16T06:41:02;101296.09;;;13.80;40.94
61205;BME280;47068;55.780;37.520;2022-10-16T06:43:28;101291.06;;;14.42;40.00
61205;BME280;47068;55.780;37.520;2022-10-16T06:45:58;101292.34;;;14.65;39.28
61205;BME280;47068;55.780;37.520;2022-10-16T06:48:24;101293.38;;;14.54;40.13
61205;BME280;47068;55.780;37.520;2022-10-16T06:51:00;101297.47;;;14.58;39.89
61205;BME280;47068;55.780;37.520;2022-10-16T06:53:28;101287.41;;;14.61;39.44
61205;BME280;47068;55.780;37.520;2022-10-16T06:55:54;101295.44;;;14.61;38.83
61205;BME280;47068;55.780;37.520;2022-10-16T06:58:19;101262.94;;;14.91;38.89
61205;BME280;47068;55.780;37.520;2022-10-16T07:00:45;101293.25;;;16.04;36.99
61205;BME280;47068;55.780;37.520;2022-10-16T07:03:11;101278.47;;;17.33;34.10
61205;BME280;47068;55.780;37.520;2022-10-16T07:05:41;101286.91;;;19.48;30.92
61205;BME280;47068;55.780;37.520;2022-10-16T07:08:07;101291.72;;;21.89;28.54
61205;BME280;47068;55.780;37.520;2022-10-16T07:10:33;101290.19;;;23.69;25.60
61205;BME280;47068;55.780;37.520;2022-10-16T07:12:58;101293.03;;;25.52;23.35
61205;BME280;47068;55.780;37.520;2022-10-16T07:15:25;101284.06;;;26.80;21.39
61205;BME280;47068;55.780;37.520;2022-10-16T07:17:51;101274.81;;;27.34;20.98
61205;BME280;47068;55.780;37.520;2022-10-16T07:20:16;101281.75;;;27.60;19.87
61205;BME280;47068;55.780;37.520;2022-10-16T07:22:41;101280.78;;;27.42;20.24
61205;BME280;47068;55.780;37.520;2022-10-16T07:25:07;101277.22;;;27.30;19.16
61205;BME280;47068;55.780;37.520;2022-10-16T07:27:33;101283.22;;;26.79;20.24
61205;BME280;47068;55.780;37.520;2022-10-16T07:29:58;101273.47;;;26.72;20.42
61205;BME280;47068;55.780;37.520;2022-10-16T07:32:24;101278.88;;;25.87;20.49
61205;BME280;47068;55.780;37.520;2022-10-16T07:34:51;101264.06;;;24.39;22.14
61205;BME280;47068;55.780;37.520;2022-10-16T07:37:17;101279.06;;;23.25;24.03
61205;BME280;47068;55.780;37.520;2022-10-16T07:39:42;101279.28;;;21.67;25.70
61205;BME280;47068;55.780;37.520;2022-10-16T07:42:08;101279.53;;;20.59;27.60
61205;BME280;47068;55.780;37.520;2022-10-16T07:44:33;101262.59;;;19.48;29.03
61205;BME280;47068;55.780;37.520;2022-10-16T07:46:59;101285.41;;;18.77;30.20
61205;BME280;47068;55.780;37.520;2022-10-16T07:49:24;101291.06;;;18.12;31.34
61205;BME280;47068;55.780;37.520;2022-10-16T07:51:50;101280.63;;;17.38;32.04
61205;BME280;47068;55.780;37.520;2022-10-16T07:54:15;101287.31;;;16.69;33.40
61205;BME280;47068;55.780;37.520;2022-10-16T07:56:40;101284.97;;;16.24;34.34
61205;BME280;47068;55.780;37.520;2022-10-16T07:59:06;101294.19;;;15.87;35.21
61205;BME280;47068;55.780;37.520;2022-10-16T08:01:31;101299.66;;;15.34;35.92
61205;BME280;47068;55.780;37.520;2022-10-16T08:03:57;101296.47;;;14.77;37.06
61205;BME280;47068;55.780;37.520;2022-10-16T08:06:22;101281.91;;;14.44;37.99
61205;BME280;47068;55.780;37.520;2022-10-16T08:08:48;101294.88;;;14.39;38.49
61205;BME280;47068;55.780;37.520;2022-10-16T08:11:13;101297.63;;;14.20;39.17
61205;BME280;47068;55.780;37.520;2022-10-16T08:13:40;101299.84;;;13.97;40.08
61205;BME280;47068;55.780;37.520;2022-10-16T08:16:07;101273.03;;;13.70;39.59
61205;BME280;47068;55.780;37.520;2022-10-16T08:18:34;101290.50;;;13.74;39.86
61205;BME280;47068;55.780;37.520;2022-10-16T08:21:01;101284.47;;;13.62;40.71
61205;BME280;47068;55.780;37.520;2022-10-16T08:23:27;101289.81;;;13.62;40.40
61205;BME280;47068;55.780;37.520;2022-10-16T08:25:54;101297.00;;;13.62;40.71
61205;BME280;47068;55.780;37.520;2022-10-16T08:28:20;101287.84;;;13.64;41.12
61205;BME280;47068;55.780;37.520;2022-10-16T08:30:46;101285.88;;;13.66;41.67
61205;BME280;47068;55.780;37.520;2022-10-16T08:33:11;101294.28;;;13.71;40.94
61205;BME280;47068;55.780;37.520;2022-10-16T08:35:37;101266.63;;;13.53;41.00
61205;BME280;47068;55.780;37.520;2022-10-16T08:38:06;101289.94;;;13.70;41.44
61205;BME280;47068;55.780;37.520;2022-10-16T08:40:33;101294.03;;;13.74;41.37
61205;BME280;47068;55.780;37.520;2022-10-16T08:43:30;101288.94;;;13.71;40.99
61205;BME280;47068;55.780;37.520;2022-10-16T08:48:54;101281.50;;;13.65;41.33
61205;BME280;47068;55.780;37.520;2022-10-16T08:51:32;101295.59;;;13.58;41.08
61205;BME280;47068;55.780;37.520;2022-10-16T08:54:06;101244.28;;;13.35;41.62
61205;BME280;47068;55.780;37.520;2022-10-16T08:56:31;101280.28;;;13.50;41.90
61205;BME280;47068;55.780;37.520;2022-10-16T08:58:59;101176.09;;;13.02;41.45
61205;BME280;47068;55.780;37.520;2022-10-16T09:01:37;101255.78;;;13.55;41.56
61205;BME280;47068;55.780;37.520;2022-10-16T09:20:49;101280.69;;;14.02;40.93
61205;BME280;47068;55.780;37.520;2022-10-16T09:23:25;101247.34;;;13.87;40.95
61205;BME280;47068;55.780;37.520;2022-10-16T09:25:52;101273.59;;;14.10;40.89
61205;BME280;47068;55.780;37.520;2022-10-16T09:28:18;101274.84;;;14.16;41.09
61205;BME280;47068;55.780;37.520;2022-10-16T09:30:44;101279.44;;;14.24;40.36
61205;BME280;47068;55.780;37.520;2022-10-16T09:33:10;101275.59;;;14.26;40.56
61205;BME280;47068;55.780;37.520;2022-10-16T09:35:40;101273.84;;;14.17;40.52
61205;BME280;47068;55.780;37.520;2022-10-16T09:38:06;101278.16;;;14.28;40.26
61205;BME280;47068;55.780;37.520;2022-10-16T09:40:39;101247.75;;;14.19;39.56
61205;BME280;47068;55.780;37.520;2022-10-16T09:46:01;101270.63;;;14.41;38.80
61205;BME280;47068;55.780;37.520;2022-10-16T09:48:43;101269.50;;;14.43;38.53
61205;BME280;47068;55.780;37.520;2022-10-16T09:51:25;101264.75;;;14.28;38.19
61205;BME280;47068;55.780;37.520;2022-10-16T09:54:10;101263.63;;;14.30;38.63
61205;BME280;47068;55.780;37.520;2022-10-16T09:56:37;101259.66;;;14.34;38.81
61205;BME280;47068;55.780;37.520;2022-10-16T09:59:12;101226.34;;;14.19;38.50
61205;BME280;47068;55.780;37.520;2022-10-16T10:01:41;101255.13;;;14.44;38.30
61205;BME280;47068;55.780;37.520;2022-10-16T10:04:06;101253.81;;;14.48;38.47
61205;BME280;47068;55.780;37.520;2022-10-16T10:06:52;101251.00;;;14.50;38.73
61205;BME280;47068;55.780;37.520;2022-10-16T10:09:48;101252.91;;;14.57;38.85
61205;BME280;47068;55.780;37.520;2022-10-16T10:12:21;101251.31;;;14.65;38.17
61205;BME280;47068;55.780;37.520;2022-10-16T10:14:48;101251.59;;;14.62;38.18
61205;BME280;47068;55.780;37.520;2022-10-16T10:17:17;101251.97;;;14.49;38.31
61205;BME280;47068;55.780;37.520;2022-10-16T10:19:55;101165.88;;;13.99;38.47
61205;BME280;47068;55.780;37.520;2022-10-16T10:22:53;101246.06;;;14.45;38.10
61205;BME280;47068;55.780;37.520;2022-10-16T10:36:19;101240.09;;;13.69;39.95
61205;BME280;47068;55.780;37.520;2022-10-16T10:46:45;101199.53;;;13.37;40.35
61205;BME280;47068;55.780;37.520;2022-10-16T10:49:24;101201.22;;;13.38;40.14
61205;BME280;47068;55.780;37.520;2022-10-16T10:54:39;101236.91;;;13.56;40.55
61205;BME280;47068;55.780;37.520;2022-10-16T10:57:18;101184.53;;;13.26;40.76
61205;BME280;47068;55.780;37.520;2022-10-16T11:08:17;101238.59;;;13.57;40.99
61205;BME280;47068;55.780;37.520;2022-10-16T11:10:53;101221.75;;;13.47;40.84
61205;BME280;47068;55.780;37.520;2022-10-16T11:16:13;101227.25;;;13.36;41.06
61205;BME280;47068;55.780;37.520;2022-10-16T11:18:57;101227.25;;;13.36;41.52
61205;BME280;47068;55.780;37.520;2022-10-16T11:21:26;101216.56;;;13.36;41.44
61205;BME280;47068;55.780;37.520;2022-10-16T11:24:01;101224.88;;;13.33;41.47
61205;BME280;47068;55.780;37.520;2022-10-16T11:26:34;101203.22;;;13.26;41.60
61205;BME280;47068;55.780;37.520;2022-10-16T11:29:10;101214.84;;;13.45;41.79
61205;BME280;47068;55.780;37.520;2022-10-16T11:31:42;101221.44;;;13.50;41.71
61205;BME280;47068;55.780;37.520;2022-10-16T11:37:05;101219.34;;;13.54;41.49
61205;BME280;47068;55.780;37.520;2022-10-16T11:39:34;101199.25;;;13.40;41.31
61205;BME280;47068;55.780;37.520;2022-10-16T11:42:04;101153.59;;;13.05;41.41
61205;BME280;47068;55.780;37.520;2022-10-16T11:47:41;101193.09;;;13.30;41.28
61205;BME280;47068;55.780;37.520;2022-10-16T11:50:23;101208.53;;;13.46;41.90
61205;BME280;47068;55.780;37.520;2022-10-16T11:55:42;101207.09;;;13.51;41.52
61205;BME280;47068;55.780;37.520;2022-10-16T11:58:30;101208.19;;;13.58;41.23
61205;BME280;47068;55.780;37.520;2022-10-16T12:01:27;101207.91;;;13.61;41.69
61205;BME280;47068;55.780;37.520;2022-10-16T12:07:08;101217.78;;;13.51;41.39
61205;BME280;47068;55.780;37.520;2022-10-16T12:09:38;101190.81;;;13.35;42.02
61205;BME280;47068;55.780;37.520;2022-10-16T12:12:04;101216.09;;;13.50;41.74
61205;BME280;47068;55.780;37.520;2022-10-16T12:14:40;101159.75;;;13.24;41.40
61205;BME280;47068;55.780;37.520;2022-10-16T12:17:26;101208.78;;;13.52;42.03
61205;BME280;47068;55.780;37.520;2022-10-16T12:20:20;101198.78;;;13.54;41.67
61205;BME280;47068;55.780;37.520;2022-10-16T12:22:54;101202.13;;;13.56;41.61
61205;BME280;47068;55.780;37.520;2022-10-16T12:28:27;101189.47;;;13.58;41.35
61205;BME280;47068;55.780;37.520;2022-10-16T12:30:56;101193.84;;;13.59;41.53
61205;BME280;47068;55.780;37.520;2022-10-16T12:33:28;101179.63;;;13.59;41.74
61205;BME280;47068;55.780;37.520;2022-10-16T12:35:54;101187.88;;;13.65;41.22
61205;BME280;47068;55.780;37.520;2022-10-16T12:41:00;101128.09;;;13.29;40.67
61205;BME280;47068;55.780;37.520;2022-10-16T12:48:37;101188.28;;;13.70;41.22
61205;BME280;47068;55.780;37.520;2022-10-16T12:51:11;101173.53;;;13.66;41.67
61205;BME280;47068;55.780;37.520;2022-10-16T12:53:37;101180.81;;;13.74;41.19
61205;BME280;47068;55.780;37.520;2022-10-16T13:04:53;101173.63;;;13.74;41.59
61205;BME280;47068;55.780;37.520;2022-10-16T13:07:32;101185.31;;;13.73;40.84
61205;BME280;47068;55.780;37.520;2022-10-16T13:18:12;101187.28;;;13.71;41.19
61205;BME280;47068;55.780;37.520;2022-10-16T13:21:24;101189.59;;;13.66;41.64
61205;BME280;47068;55.780;37.520;2022-10-16T13:29:32;101182.53;;;13.65;41.46
61205;BME280;47068;55.780;37.520;2022-10-16T13:31:59;101150.28;;;13.39;41.67
61205;BME280;47068;55.780;37.520;2022-10-16T13:34:26;101181.75;;;13.55;41.13
61205;BME280;47068;55.780;37.520;2022-10-16T13:36:52;101195.28;;;13.54;41.86
61205;BME280;47068;55.780;37.520;2022-10-16T13:39:24;101185.84;;;13.50;41.61
61205;BME280;47068;55.780;37.520;2022-10-16T13:42:10;101163.41;;;13.33;41.68
61205;BME280;47068;55.780;37.520;2022-10-16T13:44:43;101181.22;;;13.42;41.47
61205;BME280;47068;55.780;37.520;2022-10-16T13:47:24;101179.25;;;13.44;41.50
61205;BME280;47068;55.780;37.520;2022-10-16T13:50:12;101136.13;;;13.10;41.68
61205;BME280;47068;55.780;37.520;2022-10-16T13:52:38;101154.88;;;13.20;42.16
61205;BME280;47068;55.780;37.520;2022-10-16T13:55:18;101174.22;;;13.31;42.47
61205;BME280;47068;55.780;37.520;2022-10-16T13:57:44;101183.38;;;13.29;42.45
61205;BME280;47068;55.780;37.520;2022-10-16T14:00:24;101184.66;;;13.25;42.02
61205;BME280;47068;55.780;37.520;2022-10-16T14:03:04;101180.03;;;13.17;42.25
61205;BME280;47068;55.780;37.520;2022-10-16T14:05:30;101168.34;;;13.09;42.64
61205;BME280;47068;55.780;37.520;2022-10-16T14:07:56;101184.38;;;13.09;42.75
61205;BME280;47068;55.780;37.520;2022-10-16T14:10:25;101142.53;;;12.80;43.00
61205;BME280;47068;55.780;37.520;2022-10-16T14:13:02;101157.16;;;12.86;43.53
61205;BME280;47068;55.780;37.520;2022-10-16T14:15:30;101182.72;;;12.98;43.31
61205;BME280;47068;55.780;37.520;2022-10-16T14:17:57;101183.44;;;12.90;43.55
61205;BME280;47068;55.780;37.520;2022-10-16T14:20:28;100997.53;;;11.75;43.90
61205;BME280;47068;55.780;37.520;2022-10-16T14:23:28;101176.00;;;12.84;43.83
61205;BME280;47068;55.780;37.520;2022-10-16T14:25:49;101154.66;;;12.65;43.70
61205;BME280;47068;55.780;37.520;2022-10-16T14:28:19;101184.59;;;12.78;43.90
61205;BME280;47068;55.780;37.520;2022-10-16T14:30:56;101180.06;;;12.69;44.05
61205;BME280;47068;55.780;37.520;2022-10-16T14:38:34;101178.25;;;12.60;44.48
61205;BME280;47068;55.780;37.520;2022-10-16T14:41:00;101183.72;;;12.58;45.23
61205;BME280;47068;55.780;37.520;2022-10-16T14:43:38;101170.66;;;12.46;45.22
61205;BME280;47068;55.780;37.520;2022-10-16T14:46:19;101185.13;;;12.53;45.34
61205;BME280;47068;55.780;37.520;2022-10-16T14:48:50;101175.16;;;12.45;44.99
61205;BME280;47068;55.780;37.520;2022-10-16T14:51:19;101183.03;;;12.47;45.21
61205;BME280;47068;55.780;37.520;2022-10-16T14:53:46;101105.19;;;11.94;44.86
61205;BME280;47068;55.780;37.520;2022-10-16T14:56:16;101186.38;;;12.39;45.70
61205;BME280;47068;55.780;37.520;2022-10-16T14:58:42;101192.88;;;12.37;45.06